sensor_id;sensor_type;location;lat;lon;timestamp;temperature;humidity
39777;DHT22;25453;48.162;14.510;2022-07-23T12:18:41;32.50;41.10
39777;DHT22;25453;48.162;14.510;2022-07-23T12:21:08;32.50;41.40
39777;DHT22;25453;48.162;14.510;2022-07-23T12:23:36;32.60;41.50
39777;DHT22;25453;48.162;14.510;2022-07-23T12:26:06;32.70;41.40
39777;DHT22;25453;48.162;14.510;2022-07-23T12:28:35;32.80;41.20
39777;DHT22;25453;48.162;14.510;2022-07-23T12:31:05;32.80;41.10
39777;DHT22;25453;48.162;14.510;2022-07-23T12:33:40;32.80;41.10
39777;DHT22;25453;48.162;14.510;2022-07-23T12:36:11;32.80;41.30
39777;DHT22;25453;48.162;14.510;2022-07-23T12:38:48;32.80;41.30
39777;DHT22;25453;48.162;14.510;2022-07-23T12:41:16;32.80;41.50
39777;DHT22;25453;48.162;14.510;2022-07-23T12:43:45;32.90;41.50
39777;DHT22;25453;48.162;14.510;2022-07-23T12:46:21;32.90;41.60
39777;DHT22;25453;48.162;14.510;2022-07-23T12:48:50;33.00;41.40
39777;DHT22;25453;48.162;14.510;2022-07-23T12:51:40;33.00;41.20
39777;DHT22;25453;48.162;14.510;2022-07-23T12:54:28;33.10;41.20
39777;DHT22;25453;48.162;14.510;2022-07-23T12:56:56;33.20;41.00
39777;DHT22;25453;48.162;14.510;2022-07-23T12:59:33;33.30;40.80
39777;DHT22;25453;48.162;14.510;2022-07-23T13:02:01;33.30;40.70
39777;DHT22;25453;48.162;14.510;2022-07-23T13:04:29;33.30;40.80
39777;DHT22;25453;48.162;14.510;2022-07-23T13:07:00;33.40;40.70
39777;DHT22;25453;48.162;14.510;2022-07-23T13:09:32;33.50;40.50
39777;DHT22;25453;48.162;14.510;2022-07-23T13:12:09;33.60;40.50
39777;DHT22;25453;48.162;14.510;2022-07-23T13:14:37;33.60;40.30
39777;DHT22;25453;48.162;14.510;2022-07-23T13:17:05;33.60;40.20
39777;DHT22;25453;48.162;14.510;2022-07-23T13:19:33;33.60;40.30
39777;DHT22;25453;48.162;14.510;2022-07-23T13:22:01;33.60;40.50
39777;DHT22;25453;48.162;14.510;2022-07-23T13:24:35;33.60;40.40
39777;DHT22;25453;48.162;14.510;2022-07-23T13:27:06;33.60;40.20
39777;DHT22;25453;48.162;14.510;2022-07-23T13:29:39;33.60;40.10
39777;DHT22;25453;48.162;14.510;2022-07-23T13:32:12;33.60;39.20
39777;DHT22;25453;48.162;14.510;2022-07-23T13:34:40;33.30;39.00
39777;DHT22;25453;48.162;14.510;2022-07-23T13:37:09;33.10;39.10
39777;DHT22;25453;48.162;14.510;2022-07-23T13:39:36;33.00;39.20
39777;DHT22;25453;48.162;14.510;2022-07-23T13:42:05;32.90;39.50
39777;DHT22;25453;48.162;14.510;2022-07-23T13:44:34;33.00;39.70
39777;DHT22;25453;48.162;14.510;2022-07-23T13:47:05;33.10;39.80
39777;DHT22;25453;48.162;14.510;2022-07-23T13:49:34;33.10;39.50
39777;DHT22;25453;48.162;14.510;2022-07-23T13:52:03;33.10;39.40
39777;DHT22;25453;48.162;14.510;2022-07-23T13:54:43;33.10;39.40
39777;DHT22;25453;48.162;14.510;2022-07-23T13:57:14;33.00;39.40
39777;DHT22;25453;48.162;14.510;2022-07-23T13:59:43;33.00;39.70
39777;DHT22;25453;48.162;14.510;2022-07-23T14:02:15;33.00;39.70
39777;DHT22;25453;48.162;14.510;2022-07-23T14:04:52;32.90;39.80
39777;DHT22;25453;48.162;14.510;2022-07-23T14:07:23;32.90;40.10
39777;DHT22;25453;48.162;14.510;2022-07-23T14:09:57;33.00;40.20
39777;DHT22;25453;48.162;14.510;2022-07-23T14:12:26;33.10;40.00
39777;DHT22;25453;48.162;14.510;2022-07-23T14:15:00;33.20;39.40
39777;DHT22;25453;48.162;14.510;2022-07-23T14:17:28;33.20;39.10
39777;DHT22;25453;48.162;14.510;2022-07-23T14:19:55;33.20;38.50
39777;DHT22;25453;48.162;14.510;2022-07-23T14:22:23;33.00;38.60
39777;DHT22;25453;48.162;14.510;2022-07-23T14:24:51;32.70;38.80
39777;DHT22;25453;48.162;14.510;2022-07-23T14:27:20;32.30;39.40
39777;DHT22;25453;48.162;14.510;2022-07-23T14:29:47;32.00;40.00
39777;DHT22;25453;48.162;14.510;2022-07-23T14:32:15;31.70;40.50
39777;DHT22;25453;48.162;14.510;2022-07-23T14:34:43;31.60;41.00
39777;DHT22;25453;48.162;14.510;2022-07-23T14:37:15;31.50;41.40
39777;DHT22;25453;48.162;14.510;2022-07-23T14:39:43;31.50;41.60
39777;DHT22;25453;48.162;14.510;2022-07-23T14:42:12;31.50;41.80
39777;DHT22;25453;48.162;14.510;2022-07-23T14:44:40;31.50;42.20
39777;DHT22;25453;48.162;14.510;2022-07-23T14:47:09;31.50;42.70
39777;DHT22;25453;48.162;14.510;2022-07-23T14:49:37;31.50;43.10
39777;DHT22;25453;48.162;14.510;2022-07-23T14:52:05;31.60;43.30
39777;DHT22;25453;48.162;14.510;2022-07-23T14:54:33;31.60;43.50
39777;DHT22;25453;48.162;14.510;2022-07-23T14:57:02;31.50;43.60
39777;DHT22;25453;48.162;14.510;2022-07-23T14:59:30;31.40;43.80
39777;DHT22;25453;48.162;14.510;2022-07-23T15:02:00;31.20;44.10
39777;DHT22;25453;48.162;14.510;2022-07-23T15:04:28;31.00;44.50
39777;DHT22;25453;48.162;14.510;2022-07-23T15:07:15;30.90;45.00
39777;DHT22;25453;48.162;14.510;2022-07-23T15:09:43;30.80;45.40
39777;DHT22;25453;48.162;14.510;2022-07-23T15:12:10;30.90;45.60
39777;DHT22;25453;48.162;14.510;2022-07-23T15:14:38;30.90;45.80
39777;DHT22;25453;48.162;14.510;2022-07-23T15:17:07;30.80;45.90
39777;DHT22;25453;48.162;14.510;2022-07-23T15:19:36;30.80;46.00
39777;DHT22;25453;48.162;14.510;2022-07-23T15:22:04;30.80;46.00
39777;DHT22;25453;48.162;14.510;2022-07-23T15:24:34;30.70;46.10
39777;DHT22;25453;48.162;14.510;2022-07-23T15:27:02;30.60;46.20
39777;DHT22;25453;48.162;14.510;2022-07-23T15:29:30;30.50;46.20
39777;DHT22;25453;48.162;14.510;2022-07-23T15:31:58;30.40;46.40
39777;DHT22;25453;48.162;14.510;2022-07-23T15:34:27;30.40;46.50
39777;DHT22;25453;48.162;14.510;2022-07-23T15:36:56;30.30;46.60
39777;DHT22;25453;48.162;14.510;2022-07-23T15:39:26;30.20;46.70
39777;DHT22;25453;48.162;14.510;2022-07-23T15:41:55;30.20;46.60
39777;DHT22;25453;48.162;14.510;2022-07-23T15:44:25;30.10;46.60
39777;DHT22;25453;48.162;14.510;2022-07-23T15:46:56;30.00;46.40
39777;DHT22;25453;48.162;14.510;2022-07-23T15:49:26;30.00;46.50
39777;DHT22;25453;48.162;14.510;2022-07-23T15:51:54;29.90;46.50
39777;DHT22;25453;48.162;14.510;2022-07-23T15:54:23;29.90;46.40
39777;DHT22;25453;48.162;14.510;2022-07-23T15:56:51;29.80;46.40
39777;DHT22;25453;48.162;14.510;2022-07-23T15:59:19;29.80;46.20
39777;DHT22;25453;48.162;14.510;2022-07-23T16:01:46;29.80;46.10
39777;DHT22;25453;48.162;14.510;2022-07-23T16:04:14;29.70;46.00
39777;DHT22;25453;48.162;14.510;2022-07-23T16:06:42;29.70;45.90
39777;DHT22;25453;48.162;14.510;2022-07-23T16:09:09;29.60;45.90
39777;DHT22;25453;48.162;14.510;2022-07-23T16:11:45;29.60;45.90
39777;DHT22;25453;48.162;14.510;2022-07-23T16:14:12;29.60;45.90
39777;DHT22;25453;48.162;14.510;2022-07-23T16:16:41;29.50;45.80
39777;DHT22;25453;48.162;14.510;2022-07-23T16:19:09;29.50;45.70
39777;DHT22;25453;48.162;14.510;2022-07-23T16:21:37;29.40;45.70
39777;DHT22;25453;48.162;14.510;2022-07-23T16:24:05;29.40;45.70
39777;DHT22;25453;48.162;14.510;2022-07-23T16:26:32;29.30;45.80
39777;DHT22;25453;48.162;14.510;2022-07-23T16:29:01;29.30;45.90
39777;DHT22;25453;48.162;14.510;2022-07-23T16:31:31;29.20;46.00
39777;DHT22;25453;48.162;14.510;2022-07-23T16:33:59;29.10;46.10
39777;DHT22;25453;48.162;14.510;2022-07-23T16:36:26;29.10;46.20
39777;DHT22;25453;48.162;14.510;2022-07-23T16:38:54;29.00;46.30
39777;DHT22;25453;48.162;14.510;2022-07-23T16:41:21;29.00;46.40
39777;DHT22;25453;48.162;14.510;2022-07-23T16:43:49;29.00;46.60
39777;DHT22;25453;48.162;14.510;2022-07-23T16:46:17;28.90;46.80
39777;DHT22;25453;48.162;14.510;2022-07-23T16:48:48;28.90;46.90
39777;DHT22;25453;48.162;14.510;2022-07-23T16:51:18;28.90;47.00
39777;DHT22;25453;48.162;14.510;2022-07-23T16:53:46;28.80;47.10
39777;DHT22;25453;48.162;14.510;2022-07-23T16:56:13;28.80;47.20
39777;DHT22;25453;48.162;14.510;2022-07-23T16:58:41;28.80;47.20
39777;DHT22;25453;48.162;14.510;2022-07-23T17:01:08;28.80;47.30
39777;DHT22;25453;48.162;14.510;2022-07-23T17:03:39;28.80;47.40
39777;DHT22;25453;48.162;14.510;2022-07-23T17:06:10;28.70;47.60
39777;DHT22;25453;48.162;14.510;2022-07-23T17:08:38;28.70;47.50
39777;DHT22;25453;48.162;14.510;2022-07-23T17:11:17;28.70;47.60
39777;DHT22;25453;48.162;14.510;2022-07-23T17:13:47;28.70;47.60
39777;DHT22;25453;48.162;14.510;2022-07-23T17:16:16;28.70;47.60
39777;DHT22;25453;48.162;14.510;2022-07-23T17:18:43;28.60;47.60
39777;DHT22;25453;48.162;14.510;2022-07-23T17:21:11;28.60;47.60
39777;DHT22;25453;48.162;14.510;2022-07-23T17:23:39;28.60;47.60
39777;DHT22;25453;48.162;14.510;2022-07-23T17:26:06;28.60;47.60
39777;DHT22;25453;48.162;14.510;2022-07-23T17:28:34;28.60;47.60
39777;DHT22;25453;48.162;14.510;2022-07-23T17:31:05;28.60;47.60
39777;DHT22;25453;48.162;14.510;2022-07-23T17:33:32;28.50;47.60
39777;DHT22;25453;48.162;14.510;2022-07-23T17:35:59;28.50;47.70
39777;DHT22;25453;48.162;14.510;2022-07-23T17:38:27;28.50;47.90
39777;DHT22;25453;48.162;14.510;2022-07-23T17:40:57;28.50;48.20
39777;DHT22;25453;48.162;14.510;2022-07-23T17:43:25;28.40;48.60
39777;DHT22;25453;48.162;14.510;2022-07-23T17:45:53;28.40;48.80
39777;DHT22;25453;48.162;14.510;2022-07-23T17:48:21;28.40;49.00
39777;DHT22;25453;48.162;14.510;2022-07-23T17:50:48;28.30;49.20
39777;DHT22;25453;48.162;14.510;2022-07-23T17:53:22;28.30;49.20
39777;DHT22;25453;48.162;14.510;2022-07-23T17:55:54;28.30;49.30
39777;DHT22;25453;48.162;14.510;2022-07-23T17:58:23;28.30;49.30
39777;DHT22;25453;48.162;14.510;2022-07-23T18:00:53;28.20;49.10
39777;DHT22;25453;48.162;14.510;2022-07-23T18:03:21;28.10;49.10
39777;DHT22;25453;48.162;14.510;2022-07-23T18:05:48;28.10;49.10
39777;DHT22;25453;48.162;14.510;2022-07-23T18:08:15;28.00;49.10
39777;DHT22;25453;48.162;14.510;2022-07-23T18:10:43;27.90;49.10
39777;DHT22;25453;48.162;14.510;2022-07-23T18:13:10;27.90;49.20
39777;DHT22;25453;48.162;14.510;2022-07-23T18:15:38;27.90;49.30
39777;DHT22;25453;48.162;14.510;2022-07-23T18:18:05;27.80;49.50
39777;DHT22;25453;48.162;14.510;2022-07-23T18:20:33;27.80;49.60
39777;DHT22;25453;48.162;14.510;2022-07-23T18:23:04;27.70;49.70
39777;DHT22;25453;48.162;14.510;2022-07-23T18:25:31;27.70;49.90
39777;DHT22;25453;48.162;14.510;2022-07-23T18:28:00;27.70;49.90
39777;DHT22;25453;48.162;14.510;2022-07-23T18:30:28;27.70;50.00
39777;DHT22;25453;48.162;14.510;2022-07-23T18:32:56;27.70;50.10
39777;DHT22;25453;48.162;14.510;2022-07-23T18:35:32;27.60;50.20
39777;DHT22;25453;48.162;14.510;2022-07-23T18:37:59;27.60;50.30
39777;DHT22;25453;48.162;14.510;2022-07-23T18:40:30;27.60;50.40
39777;DHT22;25453;48.162;14.510;2022-07-23T18:43:00;27.60;50.50
39777;DHT22;25453;48.162;14.510;2022-07-23T18:45:28;27.50;50.70
39777;DHT22;25453;48.162;14.510;2022-07-23T18:47:57;27.50;50.80
39777;DHT22;25453;48.162;14.510;2022-07-23T18:50:24;27.50;50.80
39777;DHT22;25453;48.162;14.510;2022-07-23T18:52:52;27.40;50.90
39777;DHT22;25453;48.162;14.510;2022-07-23T18:55:21;27.40;51.10
39777;DHT22;25453;48.162;14.510;2022-07-23T18:57:48;27.30;51.10
39777;DHT22;25453;48.162;14.510;2022-07-23T19:00:16;27.30;51.20
39777;DHT22;25453;48.162;14.510;2022-07-23T19:02:44;27.30;51.30
39777;DHT22;25453;48.162;14.510;2022-07-23T19:05:11;27.30;51.50
39777;DHT22;25453;48.162;14.510;2022-07-23T19:07:40;27.30;51.50
39777;DHT22;25453;48.162;14.510;2022-07-23T19:10:08;27.30;51.50
39777;DHT22;25453;48.162;14.510;2022-07-23T19:12:38;27.20;51.50
39777;DHT22;25453;48.162;14.510;2022-07-23T19:15:06;27.20;51.60
39777;DHT22;25453;48.162;14.510;2022-07-23T19:17:34;27.20;51.60
39777;DHT22;25453;48.162;14.510;2022-07-23T19:20:03;27.20;51.70
39777;DHT22;25453;48.162;14.510;2022-07-23T19:22:34;27.20;51.80
39777;DHT22;25453;48.162;14.510;2022-07-23T19:25:04;27.10;51.80
39777;DHT22;25453;48.162;14.510;2022-07-23T19:27:32;27.10;51.90
39777;DHT22;25453;48.162;14.510;2022-07-23T19:30:00;27.10;52.00
39777;DHT22;25453;48.162;14.510;2022-07-23T19:32:27;27.10;52.10
39777;DHT22;25453;48.162;14.510;2022-07-23T19:35:02;27.00;52.20
39777;DHT22;25453;48.162;14.510;2022-07-23T19:37:33;27.00;52.40
39777;DHT22;25453;48.162;14.510;2022-07-23T19:40:02;27.00;52.50
39777;DHT22;25453;48.162;14.510;2022-07-23T19:42:33;26.90;52.80
39777;DHT22;25453;48.162;14.510;2022-07-23T19:45:07;26.80;53.10
39777;DHT22;25453;48.162;14.510;2022-07-23T19:47:37;26.80;53.40
39777;DHT22;25453;48.162;14.510;2022-07-23T19:50:16;26.70;53.70
39777;DHT22;25453;48.162;14.510;2022-07-23T19:52:44;26.70;54.00
39777;DHT22;25453;48.162;14.510;2022-07-23T19:55:13;26.60;54.30
39777;DHT22;25453;48.162;14.510;2022-07-23T19:57:41;26.60;54.50
39777;DHT22;25453;48.162;14.510;2022-07-23T20:00:10;26.50;54.80
39777;DHT22;25453;48.162;14.510;2022-07-23T20:02:38;26.50;55.10
39777;DHT22;25453;48.162;14.510;2022-07-23T20:07:48;26.50;55.50
39777;DHT22;25453;48.162;14.510;2022-07-23T20:10:18;26.40;55.70
39777;DHT22;25453;48.162;14.510;2022-07-23T20:12:46;26.40;56.00
39777;DHT22;25453;48.162;14.510;2022-07-23T20:15:15;26.30;56.20
39777;DHT22;25453;48.162;14.510;2022-07-23T20:17:43;26.30;56.30
39777;DHT22;25453;48.162;14.510;2022-07-23T20:20:11;26.30;56.40
39777;DHT22;25453;48.162;14.510;2022-07-23T20:22:39;26.30;56.50
39777;DHT22;25453;48.162;14.510;2022-07-23T20:25:07;26.30;56.60
39777;DHT22;25453;48.162;14.510;2022-07-23T20:27:35;26.30;56.80
39777;DHT22;25453;48.162;14.510;2022-07-23T20:30:05;26.30;56.80
39777;DHT22;25453;48.162;14.510;2022-07-23T20:32:33;26.30;56.90
39777;DHT22;25453;48.162;14.510;2022-07-23T20:35:00;26.30;57.00
39777;DHT22;25453;48.162;14.510;2022-07-23T20:37:28;26.40;57.00
39777;DHT22;25453;48.162;14.510;2022-07-23T20:39:55;26.40;57.10
39777;DHT22;25453;48.162;14.510;2022-07-23T20:42:23;26.40;57.10
39777;DHT22;25453;48.162;14.510;2022-07-23T20:44:51;26.50;57.10
39777;DHT22;25453;48.162;14.510;2022-07-23T20:47:19;26.40;57.10
39777;DHT22;25453;48.162;14.510;2022-07-23T20:49:47;26.40;57.20
39777;DHT22;25453;48.162;14.510;2022-07-23T20:52:14;26.40;57.20
39777;DHT22;25453;48.162;14.510;2022-07-23T20:54:49;26.40;57.30
39777;DHT22;25453;48.162;14.510;2022-07-23T20:57:16;26.30;57.40
39777;DHT22;25453;48.162;14.510;2022-07-23T20:59:44;26.30;57.50
39777;DHT22;25453;48.162;14.510;2022-07-23T21:02:11;26.20;57.60
39777;DHT22;25453;48.162;14.510;2022-07-23T21:04:39;26.20;57.60
39777;DHT22;25453;48.162;14.510;2022-07-23T21:07:12;26.20;57.70
39777;DHT22;25453;48.162;14.510;2022-07-23T21:09:45;26.10;57.80
39777;DHT22;25453;48.162;14.510;2022-07-23T21:12:14;26.10;58.10
39777;DHT22;25453;48.162;14.510;2022-07-23T21:14:43;26.10;58.20
39777;DHT22;25453;48.162;14.510;2022-07-23T21:17:12;26.10;58.20
39777;DHT22;25453;48.162;14.510;2022-07-23T21:19:39;26.10;58.30
39777;DHT22;25453;48.162;14.510;2022-07-23T21:22:07;26.00;58.30
39777;DHT22;25453;48.162;14.510;2022-07-23T21:24:35;26.00;58.40
39777;DHT22;25453;48.162;14.510;2022-07-23T21:27:03;26.00;58.40
39777;DHT22;25453;48.162;14.510;2022-07-23T21:29:34;26.00;58.50
39777;DHT22;25453;48.162;14.510;2022-07-23T21:32:02;26.00;58.50
39777;DHT22;25453;48.162;14.510;2022-07-23T21:34:30;26.00;58.60
39777;DHT22;25453;48.162;14.510;2022-07-23T21:36:58;26.00;58.60
39777;DHT22;25453;48.162;14.510;2022-07-23T21:39:26;26.00;58.70
39777;DHT22;25453;48.162;14.510;2022-07-23T21:41:56;26.00;58.70
39777;DHT22;25453;48.162;14.510;2022-07-23T21:44:26;26.00;58.60
39777;DHT22;25453;48.162;14.510;2022-07-23T21:46:55;26.00;58.70
39777;DHT22;25453;48.162;14.510;2022-07-23T21:49:25;26.00;58.70
39777;DHT22;25453;48.162;14.510;2022-07-23T21:51:55;26.00;58.70
39777;DHT22;25453;48.162;14.510;2022-07-23T21:54:22;26.00;58.70
39777;DHT22;25453;48.162;14.510;2022-07-23T21:56:53;26.10;58.70
39777;DHT22;25453;48.162;14.510;2022-07-23T21:59:20;26.10;58.60
39777;DHT22;25453;48.162;14.510;2022-07-23T22:01:48;26.10;58.60
39777;DHT22;25453;48.162;14.510;2022-07-23T22:04:16;26.10;58.60
39777;DHT22;25453;48.162;14.510;2022-07-23T22:06:43;26.10;58.40
39777;DHT22;25453;48.162;14.510;2022-07-23T22:09:11;26.10;58.30
39777;DHT22;25453;48.162;14.510;2022-07-23T22:11:38;26.10;58.30
39777;DHT22;25453;48.162;14.510;2022-07-23T22:14:06;26.00;58.30
39777;DHT22;25453;48.162;14.510;2022-07-23T22:16:34;26.00;58.50
39777;DHT22;25453;48.162;14.510;2022-07-23T22:19:02;25.90;58.50
39777;DHT22;25453;48.162;14.510;2022-07-23T22:21:31;25.90;58.70
39777;DHT22;25453;48.162;14.510;2022-07-23T22:24:14;25.90;58.80
39777;DHT22;25453;48.162;14.510;2022-07-23T22:26:43;25.90;58.90
39777;DHT22;25453;48.162;14.510;2022-07-23T22:29:11;25.90;58.90
39777;DHT22;25453;48.162;14.510;2022-07-23T22:31:47;26.00;58.90
39777;DHT22;25453;48.162;14.510;2022-07-23T22:34:15;26.00;58.90
39777;DHT22;25453;48.162;14.510;2022-07-23T22:36:42;26.00;58.90
39777;DHT22;25453;48.162;14.510;2022-07-23T22:39:09;26.00;58.90
39777;DHT22;25453;48.162;14.510;2022-07-23T22:41:38;26.00;58.90
39777;DHT22;25453;48.162;14.510;2022-07-23T22:44:06;26.10;59.00
39777;DHT22;25453;48.162;14.510;2022-07-23T22:46:33;26.10;59.00
39777;DHT22;25453;48.162;14.510;2022-07-23T22:49:01;26.10;59.00
39777;DHT22;25453;48.162;14.510;2022-07-23T22:51:29;26.10;58.90
39777;DHT22;25453;48.162;14.510;2022-07-23T22:53:58;26.10;59.00
39777;DHT22;25453;48.162;14.510;2022-07-23T22:56:26;26.00;59.00
39777;DHT22;25453;48.162;14.510;2022-07-23T22:58:54;26.00;59.00
39777;DHT22;25453;48.162;14.510;2022-07-23T23:01:41;25.90;59.00
39777;DHT22;25453;48.162;14.510;2022-07-23T23:04:08;25.90;59.10
39777;DHT22;25453;48.162;14.510;2022-07-23T23:06:36;25.80;59.20
39777;DHT22;25453;48.162;14.510;2022-07-23T23:09:03;25.80;59.30
39777;DHT22;25453;48.162;14.510;2022-07-23T23:11:34;25.70;59.50
39777;DHT22;25453;48.162;14.510;2022-07-23T23:14:01;25.70;59.50
39777;DHT22;25453;48.162;14.510;2022-07-23T23:16:29;25.70;59.70
39777;DHT22;25453;48.162;14.510;2022-07-23T23:18:56;25.70;59.70
39777;DHT22;25453;48.162;14.510;2022-07-23T23:21:25;25.70;59.80
39777;DHT22;25453;48.162;14.510;2022-07-23T23:23:56;25.70;59.90
39777;DHT22;25453;48.162;14.510;2022-07-23T23:26:25;25.70;59.90
39777;DHT22;25453;48.162;14.510;2022-07-23T23:28:52;25.70;59.90
39777;DHT22;25453;48.162;14.510;2022-07-23T23:31:19;25.70;59.90
39777;DHT22;25453;48.162;14.510;2022-07-23T23:33:47;25.70;59.90
39777;DHT22;25453;48.162;14.510;2022-07-23T23:36:15;25.70;60.00
39777;DHT22;25453;48.162;14.510;2022-07-23T23:38:42;25.80;60.00
39777;DHT22;25453;48.162;14.510;2022-07-23T23:41:10;25.70;60.00
39777;DHT22;25453;48.162;14.510;2022-07-23T23:43:37;25.70;60.00
39777;DHT22;25453;48.162;14.510;2022-07-23T23:46:05;25.70;60.00
39777;DHT22;25453;48.162;14.510;2022-07-23T23:48:33;25.70;60.00
39777;DHT22;25453;48.162;14.510;2022-07-23T23:51:00;25.60;59.90
39777;DHT22;25453;48.162;14.510;2022-07-23T23:53:28;25.60;60.10
39777;DHT22;25453;48.162;14.510;2022-07-23T23:55:56;25.50;60.20
39777;DHT22;25453;48.162;14.510;2022-07-23T23:58:25;25.40;60.40
